Aérodrome :
LOGIN :

S'inscrire | Disclaimer

   EN    FR    IT 

 










Légende :    VFR   VFR Marginal   IFR   IFR Intensif   IFR Très Intensif
Visi : 
Plafond : 
>= 8 km
>= 3000ft
5 à 8 km
1000 à 3000 ft
1500m à 5 km
500 à 1000 ft
800 à 1500m
200 à 500 ft
< 800m
< 200 ft
Symboles :   Orages  Brouillard  Fortes neiges  Fortes précipitations  Vent > 20 kt
SIGMETs :   Divers  Orages  Givrage  Turbulence  Onde Orograph.  Cendres Volcan.







- Altitude de l'aérodrome : 296 ft
- Code IATA : GKE


ETNG - Geilenkirchen

DERNIER METAR :
  • 231650Z 26014KT CAVOK 17/06 Q1016 NOSIG

METARs EXPIRÉS :
  • 231550Z 26014KT CAVOK 19/07 Q1016 NOSIG
  • 231450Z 25014G24KT CAVOK 18/08 Q1016 NOSIG

TAF TAF ETNG
Valide du 23 à 15h jusqu'au 24 à 06h UTC


231400Z 2315/2406 26014G24KT 9999 SCT035
BECMG 2316/2318 24005KT
BECMG 2404/2406 24010G17KT
Pas de NOTAMs connus pour ce terrain.
1 SIGMET publié pour la FIR Langen (EDGG) :
 
Orages en lignes de grains
EDGG SIGMET 5 VALID 231555/231745 EDZF
EDGG LANGEN FIR SQL TS OBS APRX 25NM WID LINE BTN N5002 E01026 - N4929 E00844 TOP FL370 MOV E WKN=



MET'MAP, la Météo Aéronautique d'un coup d'oeil ! - Copyright ORBIFLY Décembre 2007 - Disclaimer

ORBIFLY MET'MAP TEAM :

Programmation & Développement : Alexandra Zaïnal
Conception & Développement : Baudouin d'Aumeries
Co-Programmation & Développement : Marc-Olivier Méhu
Soutien technique & logistique : Manuel Goepfert

Contact : metmap@orbifly.com




SOURCES & CREDITS :

   NOAA